createdAt,value
2017-11-14T00:01:39.845Z,18.30
2017-11-14T00:04:06.709Z,18.00
2017-11-14T00:06:33.827Z,13.03
2017-11-14T00:09:00.884Z,19.02
2017-11-14T00:11:27.772Z,16.17
2017-11-14T00:13:54.660Z,22.52
2017-11-14T00:16:21.820Z,14.27
2017-11-14T00:18:48.664Z,19.73
2017-11-14T00:21:15.509Z,16.92
2017-11-14T00:23:42.344Z,17.87
2017-11-14T00:26:09.237Z,18.90
2017-11-14T00:28:36.350Z,22.40
2017-11-14T00:31:03.200Z,15.75
2017-11-14T00:33:30.068Z,19.55
2017-11-14T00:35:57.177Z,21.20
2017-11-14T00:38:23.996Z,20.53
2017-11-14T00:40:50.870Z,25.07
2017-11-14T00:43:18.018Z,27.63
2017-11-14T00:45:44.844Z,27.02
2017-11-14T00:48:11.729Z,19.92
2017-11-14T00:50:38.852Z,18.30
2017-11-14T00:53:05.672Z,14.40
2017-11-14T00:55:32.844Z,18.17
2017-11-14T00:57:59.709Z,18.20
2017-11-14T01:00:26.581Z,17.60
2017-11-14T01:02:53.494Z,16.77
2017-11-14T01:05:20.315Z,16.42
2017-11-14T01:07:47.468Z,20.95
2017-11-14T01:10:14.621Z,16.80
2017-11-14T01:12:41.768Z,17.17
2017-11-14T01:15:08.603Z,18.87
2017-11-14T01:17:35.695Z,20.33
2017-11-14T01:20:02.927Z,19.67
2017-11-14T01:22:30.066Z,15.40
2017-11-14T01:24:56.928Z,21.10
2017-11-14T01:27:23.743Z,21.00
2017-11-14T01:29:50.564Z,17.37
2017-11-14T01:32:17.741Z,21.50
2017-11-14T01:34:44.623Z,18.92
2017-11-14T01:37:11.741Z,22.95
2017-11-14T01:39:38.889Z,20.48
2017-11-14T01:42:05.790Z,21.12
2017-11-14T01:44:32.619Z,17.40
2017-11-14T01:46:59.537Z,18.92
2017-11-14T01:49:26.673Z,17.58
2017-11-14T01:51:53.562Z,18.05
2017-11-14T01:54:20.436Z,18.62
2017-11-14T01:56:47.608Z,21.08
2017-11-14T01:59:14.760Z,20.02
2017-11-14T02:01:41.596Z,27.37
2017-11-14T02:04:08.857Z,24.60
2017-11-14T02:06:36.011Z,25.87
2017-11-14T02:09:02.896Z,33.67
2017-11-14T02:11:29.766Z,31.50
2017-11-14T02:13:56.658Z,25.73
2017-11-14T02:16:23.549Z,28.27
2017-11-14T02:18:50.408Z,24.58
2017-11-14T02:21:17.578Z,28.65
2017-11-14T02:23:44.461Z,27.30
2017-11-14T02:26:11.393Z,21.55
2017-11-14T02:28:38.282Z,31.15
2017-11-14T02:31:05.408Z,25.42
2017-11-14T02:33:32.611Z,25.10
2017-11-14T02:35:59.480Z,25.60
2017-11-14T02:38:26.402Z,27.08
2017-11-14T02:40:53.290Z,22.62
2017-11-14T02:43:20.161Z,25.00
2017-11-14T02:45:47.077Z,27.35
2017-11-14T02:48:13.974Z,24.30
2017-11-14T02:50:41.129Z,17.95
2017-11-14T02:53:08.282Z,20.40
2017-11-14T02:55:35.179Z,24.08
2017-11-14T02:58:02.015Z,17.37
2017-11-14T03:00:29.194Z,19.30
2017-11-14T03:02:56.364Z,19.90
2017-11-14T03:05:23.212Z,21.85
2017-11-14T03:07:50.095Z,24.52
2017-11-14T03:10:16.967Z,21.67
2017-11-14T03:12:43.800Z,24.10
2017-11-14T03:15:10.713Z,21.37
2017-11-14T03:17:37.543Z,24.10
2017-11-14T03:20:04.406Z,24.10
2017-11-14T03:22:31.624Z,21.80
2017-11-14T03:24:58.497Z,17.23
2017-11-14T03:27:25.645Z,20.90
2017-11-14T03:29:52.764Z,24.90
2017-11-14T03:32:19.593Z,25.58
2017-11-14T03:34:46.765Z,30.30
2017-11-14T03:37:13.621Z,25.95
2017-11-14T03:39:40.441Z,28.12
2017-11-14T03:42:07.283Z,32.20
2017-11-14T03:44:34.136Z,30.23
2017-11-14T03:47:01.285Z,24.53
2017-11-14T03:49:28.431Z,31.27
2017-11-14T03:51:55.312Z,24.25
2017-11-14T03:54:22.537Z,31.62
2017-11-14T03:56:49.376Z,28.48
2017-11-14T03:59:16.633Z,27.10
2017-11-14T04:01:43.497Z,23.40
2017-11-14T04:04:10.622Z,27.75
2017-11-14T04:06:37.744Z,30.48
2017-11-14T04:09:04.822Z,26.23
2017-11-14T04:11:31.685Z,23.77
2017-11-14T04:13:58.557Z,24.33
2017-11-14T04:16:25.656Z,23.20
2017-11-14T04:18:52.805Z,28.08
2017-11-14T04:21:19.725Z,32.10
2017-11-14T04:23:46.579Z,23.92
2017-11-14T04:26:13.454Z,22.40
2017-11-14T04:28:40.341Z,26.27
2017-11-14T04:31:07.221Z,25.42
2017-11-14T04:33:34.377Z,25.27
2017-11-14T04:36:01.261Z,23.45
2017-11-14T04:38:28.085Z,23.52
2017-11-14T04:40:54.935Z,21.67
2017-11-14T04:43:21.812Z,18.20
2017-11-14T04:45:48.665Z,19.62
2017-11-14T04:48:15.487Z,19.62
2017-11-14T04:50:42.336Z,19.33
2017-11-14T04:53:09.205Z,18.12
2017-11-14T04:55:36.074Z,15.80
2017-11-14T04:58:03.161Z,21.52
2017-11-14T05:00:30.241Z,17.52
2017-11-14T05:02:57.137Z,17.70
2017-11-14T05:05:24.781Z,16.23
2017-11-14T05:07:51.915Z,16.17
2017-11-14T05:10:19.071Z,17.17
2017-11-14T05:12:45.953Z,18.15
2017-11-14T05:15:12.825Z,16.42
2017-11-14T05:17:39.912Z,15.80
2017-11-14T05:20:06.785Z,18.17
2017-11-14T05:22:33.637Z,18.55
2017-11-14T05:25:00.490Z,18.37
2017-11-14T05:27:27.623Z,20.50
2017-11-14T05:29:54.440Z,20.58
2017-11-14T05:32:21.261Z,20.40
2017-11-14T05:34:48.420Z,19.95
2017-11-14T05:37:15.227Z,17.67
2017-11-14T05:39:42.074Z,21.20
2017-11-14T05:42:08.949Z,21.40
2017-11-14T05:44:35.770Z,24.58
2017-11-14T05:47:02.950Z,19.60
2017-11-14T05:49:29.809Z,23.23
2017-11-14T05:51:56.938Z,20.75
2017-11-14T05:54:23.835Z,24.85
2017-11-14T05:56:50.710Z,23.08
2017-11-14T05:59:17.573Z,25.88
2017-11-14T06:01:44.724Z,37.17
2017-11-14T06:04:11.640Z,23.65
2017-11-14T06:06:38.545Z,31.12
2017-11-14T06:09:05.659Z,27.48
2017-11-14T06:11:32.545Z,27.03
2017-11-14T06:13:59.652Z,26.73
2017-11-14T06:16:26.700Z,28.23
2017-11-14T06:18:53.536Z,26.90
2017-11-14T06:21:20.690Z,25.50
2017-11-14T06:23:47.507Z,29.85
2017-11-14T06:26:14.390Z,25.05
2017-11-14T06:28:41.235Z,30.00
2017-11-14T06:31:08.093Z,28.60
2017-11-14T06:33:35.218Z,27.83
2017-11-14T06:36:02.052Z,33.90
2017-11-14T06:38:29.208Z,32.35
2017-11-14T06:40:56.361Z,29.03
2017-11-14T06:43:23.508Z,37.47
2017-11-14T06:45:50.351Z,36.90
2017-11-14T06:48:17.202Z,35.47
2017-11-14T06:50:44.054Z,33.75
2017-11-14T06:53:11.188Z,30.23
2017-11-14T06:55:38.055Z,30.27
2017-11-14T06:58:04.892Z,34.13
2017-11-14T07:00:31.729Z,29.12
2017-11-14T07:02:58.638Z,34.42
2017-11-14T07:05:25.464Z,29.00
2017-11-14T07:07:52.349Z,32.25
2017-11-14T07:10:19.253Z,26.10
2017-11-14T07:12:46.343Z,25.15
2017-11-14T07:15:13.172Z,30.43
2017-11-14T07:17:40.024Z,27.00
2017-11-14T07:20:06.869Z,28.80
2017-11-14T07:22:34.028Z,24.48
2017-11-14T07:25:00.859Z,24.60
2017-11-14T07:27:27.681Z,27.30
2017-11-14T07:29:54.865Z,32.20
2017-11-14T07:32:22.082Z,22.70
2017-11-14T07:34:49.266Z,23.40
2017-11-14T07:37:16.416Z,21.27
2017-11-14T07:39:43.564Z,18.75
2017-11-14T07:42:10.421Z,22.73
2017-11-14T07:44:37.249Z,19.30
2017-11-14T07:47:04.118Z,18.65
2017-11-14T07:49:30.977Z,22.00
2017-11-14T07:51:57.842Z,17.87
2017-11-14T07:54:24.730Z,20.35
2017-11-14T07:56:51.875Z,21.83
2017-11-14T07:59:18.722Z,18.35
2017-11-14T08:01:45.564Z,19.05
2017-11-14T08:04:12.434Z,19.37
2017-11-14T08:06:39.565Z,20.23
2017-11-14T08:09:06.822Z,21.30
2017-11-14T08:11:33.706Z,20.88
2017-11-14T08:14:00.553Z,18.45
2017-11-14T08:16:27.412Z,22.02
2017-11-14T08:18:54.483Z,20.80
2017-11-14T08:21:21.644Z,18.10
2017-11-14T08:23:48.523Z,18.40
2017-11-14T08:26:15.352Z,19.67
2017-11-14T08:28:42.183Z,20.25
2017-11-14T08:31:09.074Z,19.77
2017-11-14T08:33:35.941Z,18.52
2017-11-14T08:36:03.112Z,19.05
2017-11-14T08:38:29.999Z,18.42
2017-11-14T08:40:56.933Z,19.15
2017-11-14T08:43:23.851Z,19.25
2017-11-14T08:45:50.721Z,20.75
2017-11-14T08:48:17.565Z,20.52
2017-11-14T08:50:44.682Z,16.98
2017-11-14T08:53:11.561Z,19.98
2017-11-14T08:55:38.414Z,17.25
2017-11-14T08:58:05.513Z,15.60
2017-11-14T09:00:32.660Z,17.60
2017-11-14T09:02:59.557Z,21.12
2017-11-14T09:05:26.418Z,19.58
2017-11-14T09:07:53.600Z,18.98
2017-11-14T09:10:20.497Z,19.85
2017-11-14T09:12:47.696Z,16.75
2017-11-14T09:15:14.537Z,14.95
2017-11-14T09:17:41.694Z,18.98
2017-11-14T09:20:08.573Z,11.40
2017-11-14T09:22:36.358Z,22.63
2017-11-14T09:25:03.240Z,12.88
2017-11-14T09:27:30.411Z,17.77
2017-11-14T09:29:57.651Z,12.77
2017-11-14T09:32:25.254Z,13.65
2017-11-14T09:34:52.462Z,14.98
2017-11-14T09:37:19.336Z,14.00
2017-11-14T09:39:46.228Z,15.82
2017-11-14T09:42:13.113Z,14.70
2017-11-14T09:44:40.113Z,14.43
2017-11-14T09:47:06.981Z,14.68
2017-11-14T09:49:33.844Z,14.20
2017-11-14T09:52:00.725Z,17.58
2017-11-14T09:54:27.612Z,13.93
2017-11-14T09:56:54.521Z,14.75
2017-11-14T09:59:21.454Z,16.37
2017-11-14T10:01:48.594Z,15.60
2017-11-14T10:04:15.810Z,13.77
2017-11-14T10:06:42.728Z,14.98
2017-11-14T10:09:09.600Z,15.05
2017-11-14T10:11:36.664Z,15.57
2017-11-14T10:14:03.598Z,14.87
2017-11-14T10:16:30.448Z,16.05
2017-11-14T10:18:57.350Z,16.52
2017-11-14T10:21:24.526Z,14.87
2017-11-14T10:23:51.617Z,13.98
2017-11-14T10:26:18.464Z,18.20
2017-11-14T10:28:45.418Z,13.65
2017-11-14T10:33:57.061Z,17.08
2017-11-14T10:36:23.888Z,15.82
2017-11-14T10:38:50.710Z,14.90
2017-11-14T10:41:17.568Z,14.53
2017-11-14T10:43:44.416Z,12.13
2017-11-14T10:46:11.198Z,14.18
2017-11-14T10:48:38.056Z,13.93
2017-11-14T10:51:04.885Z,16.50
2017-11-14T10:53:31.711Z,15.60
2017-11-14T10:55:58.850Z,15.18
2017-11-14T10:58:25.683Z,11.75
2017-11-14T11:00:52.540Z,16.23
2017-11-14T11:03:19.582Z,12.57
2017-11-14T11:05:46.844Z,15.50
2017-11-14T11:08:13.887Z,14.67
2017-11-14T11:10:40.735Z,25.98
2017-11-14T11:13:07.549Z,12.68
2017-11-14T11:15:34.728Z,15.17
2017-11-14T11:18:01.981Z,17.20
2017-11-14T11:20:28.824Z,13.27
2017-11-14T11:22:55.671Z,19.37
2017-11-14T11:25:22.510Z,17.23
2017-11-14T11:27:49.377Z,12.50
2017-11-14T11:30:16.204Z,15.13
2017-11-14T11:32:43.338Z,15.25
2017-11-14T11:35:10.496Z,14.20
2017-11-14T11:37:37.337Z,13.13
2017-11-14T11:40:04.156Z,14.65
2017-11-14T11:42:30.989Z,16.45
2017-11-14T11:44:57.839Z,13.10
2017-11-14T11:47:32.283Z,12.77
2017-11-14T11:49:59.172Z,12.05
2017-11-14T11:52:26.008Z,11.27
2017-11-14T11:54:52.857Z,12.48
2017-11-14T11:57:19.969Z,14.00
2017-11-14T11:59:46.813Z,12.25
2017-11-14T12:02:13.644Z,8.90
2017-11-14T12:04:40.804Z,13.48
2017-11-14T12:07:07.595Z,17.80
2017-11-14T12:09:34.403Z,9.48
2017-11-14T12:12:01.228Z,10.95
2017-11-14T12:14:28.093Z,11.05
2017-11-14T12:16:54.931Z,7.25
2017-11-14T12:19:21.788Z,11.15
2017-11-14T12:21:48.596Z,11.60
2017-11-14T12:24:15.406Z,12.85
2017-11-14T12:26:42.235Z,14.10
2017-11-14T12:29:09.335Z,14.52
2017-11-14T12:31:36.212Z,11.90
2017-11-14T12:34:03.008Z,10.80
2017-11-14T12:36:29.790Z,11.33
2017-11-14T12:38:56.650Z,10.37
2017-11-14T12:41:23.456Z,9.32
2017-11-14T12:43:50.550Z,13.30
2017-11-14T12:46:17.370Z,13.07
2017-11-14T12:48:44.155Z,16.85
2017-11-14T12:51:10.975Z,12.43
2017-11-14T12:53:37.814Z,9.73
2017-11-14T12:56:04.630Z,11.05
2017-11-14T12:58:31.758Z,9.55
2017-11-14T13:00:58.577Z,11.15
2017-11-14T13:03:25.359Z,9.32
2017-11-14T13:05:52.390Z,11.80
2017-11-14T13:08:19.442Z,10.73
2017-11-14T13:10:46.264Z,10.52
2017-11-14T13:13:13.611Z,12.73
2017-11-14T13:15:40.421Z,11.67
2017-11-14T13:18:07.227Z,9.60
2017-11-14T13:20:34.016Z,10.77
2017-11-14T13:23:01.110Z,11.07
2017-11-14T13:25:27.904Z,10.35
2017-11-14T13:27:55.008Z,10.15
2017-11-14T13:30:21.842Z,10.00
2017-11-14T13:32:48.896Z,14.15
2017-11-14T13:35:15.698Z,10.40
2017-11-14T13:37:42.544Z,21.10
2017-11-14T13:40:09.632Z,16.48
2017-11-14T13:42:36.781Z,15.40
2017-11-14T13:45:03.824Z,14.47
2017-11-14T13:47:30.607Z,15.45
2017-11-14T13:49:57.716Z,19.67
2017-11-14T13:52:24.563Z,14.75
2017-11-14T13:54:52.255Z,14.10
2017-11-14T13:57:19.073Z,13.85
2017-11-14T13:59:45.877Z,14.07
2017-11-14T14:02:12.679Z,17.98
2017-11-14T14:04:39.695Z,16.12
2017-11-14T14:07:06.549Z,18.33
2017-11-14T14:09:33.349Z,16.33
2017-11-14T14:12:00.165Z,13.02
2017-11-14T14:14:26.965Z,16.35
2017-11-14T14:16:53.745Z,15.00
2017-11-14T14:19:20.562Z,16.10
2017-11-14T14:21:47.598Z,13.20
2017-11-14T14:24:14.383Z,19.80
2017-11-14T14:26:41.207Z,20.60
2017-11-14T14:29:08.352Z,13.38
2017-11-14T14:31:35.240Z,15.40
2017-11-14T14:34:02.034Z,15.18
2017-11-14T14:36:29.170Z,12.35
2017-11-14T14:38:56.224Z,13.43
2017-11-14T14:41:23.264Z,15.93
2017-11-14T14:43:50.077Z,12.88
2017-11-14T14:46:16.892Z,16.73
2017-11-14T14:48:43.700Z,15.63
2017-11-14T14:51:10.858Z,15.82
2017-11-14T14:53:37.870Z,16.60
2017-11-14T14:56:04.658Z,14.90
2017-11-14T14:58:31.528Z,23.10
2017-11-14T15:00:58.312Z,19.67
2017-11-14T15:03:25.143Z,16.05
2017-11-14T15:05:51.974Z,21.90
2017-11-14T15:08:22.076Z,17.58
2017-11-14T15:10:49.498Z,23.27
2017-11-14T15:13:16.339Z,21.48
2017-11-14T15:15:43.154Z,25.50
2017-11-14T15:18:10.211Z,15.95
2017-11-14T15:20:37.032Z,18.60
2017-11-14T15:23:04.103Z,17.90
2017-11-14T15:25:30.891Z,24.98
2017-11-14T15:27:57.736Z,22.05
2017-11-14T15:30:24.558Z,18.10
2017-11-14T15:32:51.375Z,19.87
2017-11-14T15:35:18.254Z,21.60
2017-11-14T15:37:45.068Z,23.98
2017-11-14T15:40:11.892Z,28.65
2017-11-14T15:42:39.165Z,31.37
2017-11-14T15:45:05.962Z,27.83
2017-11-14T15:47:32.781Z,30.60
2017-11-14T15:49:59.628Z,27.35
2017-11-14T15:52:26.443Z,33.75
2017-11-14T15:54:53.268Z,31.80
2017-11-14T15:57:20.136Z,29.65
2017-11-14T15:59:46.965Z,41.53
2017-11-14T16:02:13.747Z,33.43
2017-11-14T16:04:40.847Z,31.70
2017-11-14T16:07:07.900Z,29.90
2017-11-14T16:09:34.679Z,34.03
2017-11-14T16:12:01.535Z,36.63
2017-11-14T16:14:28.331Z,32.17
2017-11-14T16:16:55.172Z,34.13
2017-11-14T16:19:21.998Z,35.10
2017-11-14T16:21:48.795Z,31.98
2017-11-14T16:24:15.599Z,29.60
2017-11-14T16:26:42.419Z,30.88
2017-11-14T16:29:09.489Z,31.83
2017-11-14T16:31:36.278Z,30.45
2017-11-14T16:34:03.133Z,31.10
2017-11-14T16:36:29.919Z,34.30
2017-11-14T16:38:57.065Z,37.08
2017-11-14T16:41:23.874Z,32.43
2017-11-14T16:43:50.671Z,35.58
2017-11-14T16:46:17.458Z,36.97
2017-11-14T16:48:44.352Z,40.60
2017-11-14T16:51:11.147Z,36.83
2017-11-14T16:53:38.221Z,47.62
2017-11-14T16:56:05.371Z,36.03
2017-11-14T16:58:32.167Z,35.08
2017-11-14T17:00:58.959Z,36.83
2017-11-14T17:03:26.108Z,44.92
2017-11-14T17:05:52.936Z,40.45
2017-11-14T17:08:19.779Z,40.00
2017-11-14T17:10:47.141Z,40.55
2017-11-14T17:13:15.994Z,44.30
2017-11-14T17:15:42.806Z,38.78
2017-11-14T17:18:09.623Z,37.05
2017-11-14T17:20:36.452Z,37.30
2017-11-14T17:23:03.261Z,38.83
2017-11-14T17:25:30.118Z,53.70
2017-11-14T17:27:56.941Z,39.50
2017-11-14T17:30:24.045Z,40.03
2017-11-14T17:32:50.908Z,36.92
2017-11-14T17:35:17.935Z,37.20
2017-11-14T17:37:44.982Z,35.53
2017-11-14T17:40:11.799Z,34.03
2017-11-14T17:42:38.621Z,37.33
2017-11-14T17:45:05.407Z,45.33
2017-11-14T17:47:32.228Z,40.63
2017-11-14T17:49:59.304Z,39.65
2017-11-14T17:52:26.105Z,42.62
2017-11-14T17:54:52.970Z,37.45
2017-11-14T17:57:20.751Z,41.37
2017-11-14T17:59:47.798Z,40.08
2017-11-14T18:02:14.847Z,41.67
2017-11-14T18:04:41.919Z,48.35
2017-11-14T18:07:08.715Z,45.00
2017-11-14T18:09:35.895Z,40.38
2017-11-14T18:12:02.956Z,43.42
2017-11-14T18:14:30.166Z,44.30
2017-11-14T18:16:57.005Z,42.75
2017-11-14T18:19:24.078Z,51.80
2017-11-14T18:21:51.232Z,41.65
2017-11-14T18:24:18.058Z,43.20
2017-11-14T18:26:45.128Z,45.83
2017-11-14T18:29:12.177Z,52.20
2017-11-14T18:31:39.249Z,48.08
2017-11-14T18:34:06.072Z,48.50
2017-11-14T18:36:32.881Z,51.45
2017-11-14T18:38:59.688Z,49.67
2017-11-14T18:41:26.800Z,56.40
2017-11-14T18:43:53.625Z,50.37
2017-11-14T18:46:20.431Z,53.35
2017-11-14T18:48:47.526Z,58.33
2017-11-14T18:51:14.572Z,51.50
2017-11-14T18:53:41.591Z,49.77
2017-11-14T18:56:08.421Z,52.65
2017-11-14T18:58:35.231Z,54.77
2017-11-14T19:01:02.052Z,63.28
2017-11-14T19:03:28.842Z,58.97
2017-11-14T19:05:55.643Z,58.42
2017-11-14T19:08:22.495Z,56.50
2017-11-14T19:10:49.632Z,58.65
2017-11-14T19:13:16.442Z,55.42
2017-11-14T19:15:43.255Z,59.33
2017-11-14T19:18:10.369Z,54.13
2017-11-14T19:20:37.411Z,57.50
2017-11-14T19:23:04.239Z,58.55
2017-11-14T19:25:31.307Z,62.88
2017-11-14T19:27:58.125Z,57.30
2017-11-14T19:30:24.969Z,67.82
2017-11-14T19:32:51.753Z,62.42
2017-11-14T19:35:18.576Z,72.00
2017-11-14T19:37:45.426Z,72.22
2017-11-14T19:40:12.217Z,68.60
2017-11-14T19:42:39.308Z,66.80
2017-11-14T19:45:06.149Z,70.10
2017-11-14T19:47:33.304Z,56.37
2017-11-14T19:50:00.113Z,61.17
2017-11-14T19:52:27.300Z,62.10
2017-11-14T19:54:54.130Z,59.38
2017-11-14T19:57:20.923Z,70.18
2017-11-14T19:59:48.032Z,62.80
2017-11-14T20:02:14.851Z,66.00
2017-11-14T20:04:41.919Z,65.60
2017-11-14T20:07:09.080Z,63.70
2017-11-14T20:09:35.859Z,57.42
2017-11-14T20:12:02.679Z,69.10
2017-11-14T20:14:29.538Z,71.65
2017-11-14T20:16:56.369Z,64.70
2017-11-14T20:19:23.207Z,74.18
2017-11-14T20:21:50.060Z,60.55
2017-11-14T20:24:16.892Z,57.80
2017-11-14T20:26:43.713Z,65.90
2017-11-14T20:29:10.523Z,61.60
2017-11-14T20:31:37.303Z,58.75
2017-11-14T20:34:04.557Z,62.13
2017-11-14T20:36:31.384Z,58.55
2017-11-14T20:38:58.216Z,65.68
2017-11-14T20:41:25.027Z,58.22
2017-11-14T20:43:51.888Z,58.00
2017-11-14T20:46:18.748Z,71.87
2017-11-14T20:48:45.561Z,63.87
2017-11-14T20:51:12.656Z,56.33
2017-11-14T20:53:39.479Z,55.55
2017-11-14T20:56:06.309Z,67.20
2017-11-14T20:58:33.152Z,64.43
2017-11-14T21:00:59.972Z,70.45
2017-11-14T21:03:26.785Z,65.85
2017-11-14T21:05:53.852Z,71.37
2017-11-14T21:08:20.636Z,70.25
2017-11-14T21:10:47.463Z,68.75
2017-11-14T21:13:14.264Z,75.57
2017-11-14T21:15:41.046Z,70.93
2017-11-14T21:18:07.896Z,66.07
2017-11-14T21:20:34.711Z,80.33
2017-11-14T21:23:01.818Z,107.95
2017-11-14T21:25:28.671Z,88.43
2017-11-14T21:27:55.471Z,91.20
2017-11-14T21:30:22.270Z,88.90
2017-11-14T21:32:49.132Z,100.35
2017-11-14T21:35:15.948Z,76.10
2017-11-14T21:37:42.802Z,83.37
2017-11-14T21:40:09.612Z,78.72
2017-11-14T21:42:36.418Z,80.57
2017-11-14T21:45:03.519Z,88.75
2017-11-14T21:47:30.365Z,74.07
2017-11-14T21:49:57.182Z,80.95
2017-11-14T21:52:23.996Z,76.00
2017-11-14T21:54:50.824Z,87.22
2017-11-14T21:57:17.941Z,112.43
2017-11-14T21:59:44.768Z,100.87
2017-11-14T22:02:11.645Z,105.65
2017-11-14T22:04:38.508Z,110.07
2017-11-14T22:07:05.332Z,114.68
2017-11-14T22:09:32.197Z,130.60
2017-11-14T22:11:59.215Z,121.73
2017-11-14T22:14:26.047Z,130.15
2017-11-14T22:16:53.297Z,135.73
2017-11-14T22:19:20.115Z,124.25
2017-11-14T22:21:46.904Z,120.87
2017-11-14T22:24:13.756Z,163.37
2017-11-14T22:26:40.546Z,149.10
2017-11-14T22:29:07.389Z,170.82
2017-11-14T22:31:34.244Z,182.60
2017-11-14T22:34:01.073Z,151.98
2017-11-14T22:36:27.963Z,217.57
2017-11-14T22:38:54.808Z,196.00
2017-11-14T22:41:21.866Z,202.87
2017-11-14T22:43:48.986Z,170.32
2017-11-14T22:46:16.131Z,157.07
2017-11-14T22:48:42.979Z,167.13
2017-11-14T22:51:09.777Z,196.77
2017-11-14T22:53:37.089Z,199.93
2017-11-14T22:56:03.883Z,158.50
2017-11-14T22:58:30.687Z,160.12
2017-11-14T23:00:57.547Z,176.10
2017-11-14T23:03:24.644Z,196.63
2017-11-14T23:05:51.455Z,223.50
2017-11-14T23:08:18.324Z,213.18
2017-11-14T23:10:45.484Z,190.02
2017-11-14T23:13:12.523Z,185.85
2017-11-14T23:15:39.679Z,164.15
2017-11-14T23:18:06.470Z,167.60
2017-11-14T23:20:33.660Z,200.23
2017-11-14T23:23:00.717Z,225.63
2017-11-14T23:25:27.555Z,267.30
2017-11-14T23:27:54.376Z,173.57
2017-11-14T23:30:21.224Z,174.60
2017-11-14T23:32:48.044Z,164.82
2017-11-14T23:35:14.832Z,170.85
2017-11-14T23:37:42.152Z,148.87
2017-11-14T23:40:08.946Z,175.05
2017-11-14T23:42:35.764Z,164.90
2017-11-14T23:45:02.626Z,162.88
2017-11-14T23:47:29.484Z,186.75
2017-11-14T23:49:56.283Z,190.50
2017-11-14T23:52:23.146Z,140.98
2017-11-14T23:54:49.940Z,149.00
2017-11-14T23:57:16.771Z,166.73
2017-11-14T23:59:43.880Z,151.63
